To NAV CANADA Home Page Login to a new session Search on AWWS site Disclaimer Vers la page française équivalente Tips FAQ What's new on the site To the Forecasts and Observations / NOTAM section To "File a Flight Plan" website Publications and other links Update of the User's profile FIC Telephone Numbers My Weather Data Folder Route Weather Data Regional Weather Data Local Weather Data To the Forecasts and Observations / NOTAM section
Request Generated 04/24/2019 at 16:08:47 UTC . Weather information available at that time is displayed.

METAR/TAF

MOOSE JAW/AIR VICE MARSHAL C.M. MCEWEN/SK    

METAR CYMJ 241600Z 31010G16KT 15SM FEW090 14/M02 A2987 RMK AC1 SLP124=
METAR CYMJ 241500Z 31013KT 15SM FEW050 FEW090 11/01 A2987 RMK SC1AC1 SLP126=
METAR CYMJ 241400Z 30011KT 12SM FEW050 FEW110 08/02 A2987 RMK SC1AC1 SLP127=

TAF CYMJ 241130Z 2412/2424 29010KT P6SM FEW040 SCT090
BECMG 2414/2416 30012G22KT
RMK NXT FCST BY 241800Z=
Your time UTC time
Weather data provided by Environment Canada and NAV CANADA